Time;durP1;ratioP1;P1;durP2;ratioP2;P2;SDS_P1;SDS_P2;PMS_P1;PMS_P2;Temp;Humidity;BMP_temperature;BMP_pressure;BME280_temperature;BME280_humidity;BME280_pressure;Samples;Min_cycle;Max_cycle;Signal;HPM_P1;HPM_P2
2022/07/26 00:00:01;;;;;;;17.20;6.63;;;21.50;95.50;;;;;;5053942;28;20045;-75
2022/07/26 00:02:26;;;;;;;21.13;6.38;;;21.50;99.10;;;;;;5054088;28;20037;-76
2022/07/26 00:04:52;;;;;;;11.10;6.03;;;21.50;99.70;;;;;;5054386;28;20033;-77
2022/07/26 00:07:20;;;;;;;14.85;6.32;;;;;;;;;;5040289;28;20017;-74
2022/07/26 00:09:46;;;;;;;12.55;6.60;;;21.30;99.90;;;;;;5056548;28;20017;-75
2022/07/26 00:12:11;;;;;;;14.68;6.30;;;20.40;97.80;;;;;;5055258;28;20079;-77
2022/07/26 00:14:37;;;;;;;18.65;5.88;;;21.30;96.80;;;;;;5052875;28;20048;-76
2022/07/26 00:17:06;;;;;;;11.90;6.20;;;;;;;;;;5053798;28;20028;-69
2022/07/26 00:19:31;;;;;;;12.55;6.65;;;21.00;99.90;;;;;;5052544;28;20090;-77
2022/07/26 00:24:42;;;;;;;12.27;6.20;;;21.10;99.90;;;;;;5052641;28;20467;-79
2022/07/26 00:27:08;;;;;;;16.95;6.97;;;21.10;99.90;;;;;;5054953;28;20031;-77
2022/07/26 00:29:34;;;;;;;15.88;5.80;;;21.10;99.90;;;;;;5054580;28;20021;-73
2022/07/26 00:32:00;;;;;;;16.60;6.53;;;21.10;99.90;;;;;;5056470;28;20081;-79
2022/07/26 00:34:26;;;;;;;15.30;5.30;;;21.00;99.90;;;;;;5046755;28;20037;-74
2022/07/26 00:36:52;;;;;;;13.48;5.68;;;21.10;99.90;;;;;;5036285;28;20030;-75
2022/07/26 00:39:17;;;;;;;14.00;6.70;;;21.00;99.90;;;;;;5035845;28;20039;-75
2022/07/26 00:41:43;;;;;;;16.25;6.13;;;21.10;99.90;;;;;;5033549;28;20025;-76
2022/07/26 00:44:09;;;;;;;13.43;5.85;;;21.00;99.90;;;;;;5054093;28;20491;-76
2022/07/26 00:46:35;;;;;;;11.15;6.05;;;21.00;99.90;;;;;;5054153;28;20025;-77
2022/07/26 00:49:01;;;;;;;12.43;5.63;;;20.90;99.90;;;;;;5035564;28;20125;-78
2022/07/26 00:51:27;;;;;;;13.32;5.95;;;21.00;99.90;;;;;;5053797;28;20036;-78
2022/07/26 00:53:53;;;;;;;9.40;5.80;;;20.80;99.90;;;;;;5053406;28;20029;-79
2022/07/26 00:56:20;;;;;;;12.55;5.80;;;20.70;99.90;;;;;;5050504;28;20376;-78
2022/07/26 00:58:46;;;;;;;13.45;6.30;;;20.60;98.20;;;;;;5042457;28;20032;-78
2022/07/26 01:01:12;;;;;;;10.57;5.32;;;20.60;98.70;;;;;;5053282;28;20025;-78
2022/07/26 01:03:38;;;;;;;12.75;6.00;;;20.50;99.30;;;;;;5042829;28;20056;-80
2022/07/26 01:06:04;;;;;;;11.98;6.18;;;20.50;99.20;;;;;;5032836;28;20065;-71
2022/07/26 01:08:30;;;;;;;16.27;6.45;;;20.50;99.30;;;;;;5032243;28;20494;-66
2022/07/26 01:10:56;;;;;;;12.43;6.20;;;20.50;99.30;;;;;;5036256;28;20101;-79
2022/07/26 01:13:23;;;;;;;13.43;6.32;;;20.40;99.10;;;;;;5032516;28;20060;-79
2022/07/26 01:15:49;;;;;;;11.70;6.18;;;20.40;99.30;;;;;;5032542;28;20456;-75
2022/07/26 01:18:15;;;;;;;15.30;5.68;;;20.40;99.40;;;;;;5032585;28;20027;-79
2022/07/26 01:20:42;;;;;;;14.38;6.00;;;20.30;99.30;;;;;;5034571;28;20056;-67
2022/07/26 01:23:08;;;;;;;11.50;6.20;;;20.30;99.30;;;;;;5033111;28;20030;-73
2022/07/26 01:25:38;;;;;;;18.45;6.53;;;20.10;99.20;;;;;;5033133;28;20039;-73
2022/07/26 01:28:04;;;;;;;13.52;6.72;;;20.10;99.50;;;;;;5032109;28;20029;-69
2022/07/26 01:30:30;;;;;;;18.77;5.60;;;20.10;99.00;;;;;;5031594;28;20032;-77
2022/07/26 01:32:56;;;;;;;23.35;6.45;;;20.10;99.10;;;;;;5032687;28;20109;-76
2022/07/26 01:35:21;;;;;;;13.98;6.88;;;20.10;99.30;;;;;;5031989;28;20116;-74
2022/07/26 01:37:47;;;;;;;16.33;7.13;;;20.20;99.90;;;;;;5032822;28;20155;-79
2022/07/26 01:40:13;;;;;;;22.98;6.80;;;20.20;99.90;;;;;;5031766;28;20431;-76
2022/07/26 01:42:40;;;;;;;14.68;6.90;;;20.20;99.90;;;;;;5033542;28;20029;-75
2022/07/26 01:45:09;;;;;;;17.10;6.85;;;20.20;99.90;;;;;;5032794;28;20143;-79
2022/07/26 01:47:35;;;;;;;16.42;7.50;;;20.20;99.90;;;;;;5032966;28;20068;-75
2022/07/26 01:50:03;;;;;;;16.27;6.30;;;20.20;99.90;;;;;;5033265;28;20017;-65
2022/07/26 01:52:29;;;;;;;18.33;7.28;;;20.20;99.90;;;;;;5034523;28;20109;-72
2022/07/26 01:54:54;;;;;;;12.38;6.15;;;20.20;99.90;;;;;;5033135;28;20120;-71
2022/07/26 01:57:20;;;;;;;20.23;7.45;;;20.10;99.90;;;;;;5033938;28;20028;-79
2022/07/26 01:59:46;;;;;;;11.20;6.32;;;20.10;99.90;;;;;;5032949;28;20030;-79
2022/07/26 02:02:12;;;;;;;14.55;6.75;;;20.10;99.90;;;;;;5033594;28;20041;-79
2022/07/26 02:07:22;;;;;;;25.58;11.98;;;19.90;99.90;;;;;;5032733;28;20037;-80
2022/07/26 02:09:48;;;;;;;27.63;11.77;;;19.40;99.90;;;;;;5033780;28;20032;-80
2022/07/26 02:12:14;;;;;;;24.38;12.93;;;19.50;99.90;;;;;;5033774;28;20101;-70
2022/07/26 02:14:40;;;;;;;32.10;11.25;;;19.50;99.90;;;;;;5035039;28;20018;-80
2022/07/26 02:17:06;;;;;;;27.75;12.20;;;19.60;99.90;;;;;;5030549;28;20038;-80
2022/07/26 02:19:32;;;;;;;20.58;10.75;;;19.60;99.90;;;;;;5030518;28;20028;-80
2022/07/26 02:21:58;;;;;;;27.08;12.27;;;19.60;99.90;;;;;;5030223;28;20030;-80
2022/07/26 02:24:28;;;;;;;27.52;10.50;;;19.50;99.90;;;;;;5030138;28;20124;-76
2022/07/26 02:26:56;;;;;;;22.00;10.65;;;19.50;99.90;;;;;;5030286;28;20025;-76
2022/07/26 02:29:22;;;;;;;21.13;9.77;;;19.50;99.90;;;;;;5030250;28;20037;-80
2022/07/26 02:31:47;;;;;;;21.10;8.13;;;19.50;99.90;;;;;;5030297;28;20013;-79
2022/07/26 02:34:13;;;;;;;20.73;8.95;;;19.60;99.90;;;;;;5030708;28;20022;-73
2022/07/26 02:36:39;;;;;;;20.35;9.35;;;19.60;99.90;;;;;;5034573;28;20029;-77
2022/07/26 02:39:05;;;;;;;17.92;8.35;;;19.60;99.90;;;;;;5033905;28;20538;-79
2022/07/26 02:41:31;;;;;;;14.73;8.27;;;19.60;99.90;;;;;;5033976;28;20030;-79
2022/07/26 02:43:57;;;;;;;18.27;7.05;;;19.50;99.90;;;;;;5033681;28;20438;-79
2022/07/26 02:46:23;;;;;;;15.93;8.10;;;19.50;99.90;;;;;;5033558;28;20373;-65
2022/07/26 02:48:49;;;;;;;13.38;7.90;;;19.50;99.90;;;;;;5034219;28;20013;-72
2022/07/26 02:51:15;;;;;;;14.02;7.43;;;19.50;99.90;;;;;;5033646;28;20480;-79
2022/07/26 02:53:41;;;;;;;15.00;8.20;;;19.60;99.90;;;;;;5033561;28;20067;-79
2022/07/26 02:56:07;;;;;;;22.98;8.25;;;19.60;99.90;;;;;;5033688;28;20063;-80
2022/07/26 02:58:33;;;;;;;14.75;8.35;;;19.60;99.90;;;;;;5035634;28;20029;-80
2022/07/26 03:00:59;;;;;;;18.13;7.65;;;19.60;99.90;;;;;;5054732;28;20108;-78
2022/07/26 03:03:25;;;;;;;19.65;8.13;;;19.70;99.90;;;;;;5054636;28;20518;-78
2022/07/26 03:05:51;;;;;;;16.63;7.78;;;19.70;99.90;;;;;;5054617;28;20029;-80
2022/07/26 03:08:16;;;;;;;17.98;8.35;;;19.60;99.90;;;;;;5054652;28;20123;-79
2022/07/26 03:10:42;;;;;;;17.00;8.30;;;19.60;99.90;;;;;;5054659;28;20044;-79
2022/07/26 03:13:09;;;;;;;15.85;7.38;;;19.60;99.90;;;;;;5054609;28;20025;-80
2022/07/26 03:15:35;;;;;;;15.90;7.70;;;19.60;99.90;;;;;;5054156;28;20037;-79
2022/07/26 03:18:00;;;;;;;14.75;8.68;;;19.60;99.90;;;;;;5054790;28;20071;-80
2022/07/26 03:20:26;;;;;;;23.95;7.70;;;19.60;99.90;;;;;;5054641;28;20154;-78
2022/07/26 03:22:52;;;;;;;15.57;7.72;;;19.60;99.90;;;;;;5054522;28;20025;-79
2022/07/26 03:25:18;;;;;;;16.63;7.65;;;19.60;99.90;;;;;;5054116;28;20036;-79
2022/07/26 03:27:44;;;;;;;17.23;7.22;;;19.60;99.90;;;;;;5054245;28;20056;-77
2022/07/26 03:30:10;;;;;;;15.13;7.03;;;19.50;99.90;;;;;;5053810;28;20037;-72
2022/07/26 03:32:37;;;;;;;17.95;7.97;;;19.50;99.90;;;;;;5051114;28;20078;-78
2022/07/26 03:35:03;;;;;;;17.10;8.02;;;19.60;99.90;;;;;;5049401;28;20367;-79
2022/07/26 03:37:29;;;;;;;14.00;7.80;;;19.60;99.90;;;;;;5052681;28;20021;-77
2022/07/26 03:39:55;;;;;;;16.10;8.00;;;19.60;99.90;;;;;;5054003;28;20083;-79
2022/07/26 03:42:21;;;;;;;19.27;7.97;;;19.60;99.90;;;;;;5053873;28;20029;-80
2022/07/26 03:44:47;;;;;;;15.77;7.85;;;20.00;99.90;;;;;;5053906;28;20036;-79
2022/07/26 03:47:13;;;;;;;16.17;8.65;;;20.70;99.90;;;;;;5050108;28;20017;-80
2022/07/26 03:49:39;;;;;;;20.13;9.02;;;21.50;99.90;;;;;;5032705;28;20029;-81
2022/07/26 03:52:05;;;;;;;15.07;9.10;;;22.00;99.30;;;;;;5051717;28;20036;-80
2022/07/26 03:54:31;;;;;;;15.60;8.52;;;22.50;95.80;;;;;;5052896;28;20035;-80
2022/07/26 03:56:56;;;;;;;21.70;8.38;;;23.20;94.10;;;;;;5053144;28;20033;-80
2022/07/26 03:59:24;;;;;;;23.35;8.85;;;23.30;93.40;;;;;;5052952;28;20017;-79
2022/07/26 04:01:50;;;;;;;14.93;7.68;;;23.80;90.20;;;;;;5057894;28;20496;-80
2022/07/26 04:04:17;;;;;;;14.98;6.78;;;24.10;88.20;;;;;;5055186;28;20025;-80
2022/07/26 04:06:45;;;;;;;19.13;8.07;;;24.30;86.80;;;;;;5056910;28;20546;-80
2022/07/26 04:09:11;;;;;;;19.17;7.05;;;24.90;82.80;;;;;;5056594;28;20086;-79
2022/07/26 04:11:38;;;;;;;14.55;6.47;;;25.40;79.90;;;;;;5056677;28;20035;-72
2022/07/26 04:14:04;;;;;;;15.30;7.13;;;25.70;77.60;;;;;;5055954;28;20502;-79
2022/07/26 04:16:31;;;;;;;19.50;7.03;;;26.40;74.40;;;;;;5060302;28;20033;-79
2022/07/26 04:18:57;;;;;;;15.85;7.20;;;27.30;72.30;;;;;;5061156;28;20043;-79
2022/07/26 04:21:23;;;;;;;13.13;7.15;;;;;;;;;;5060089;28;20486;-80
2022/07/26 04:23:50;;;;;;;13.57;6.68;;;;;;;;;;5054733;28;20032;-78
2022/07/26 04:26:15;;;;;;;11.73;6.82;;;29.00;66.10;;;;;;5055176;28;20039;-81
2022/07/26 04:28:42;;;;;;;10.27;6.18;;;29.30;65.80;;;;;;5035725;28;20033;-80
2022/07/26 04:31:08;;;;;;;18.55;7.03;;;;;;;;;;5053072;28;20025;-81
2022/07/26 04:33:34;;;;;;;16.08;7.05;;;29.30;81.20;;;;;;5053332;28;20438;-81
2022/07/26 04:36:02;;;;;;;14.45;6.90;;;29.90;62.60;;;;;;5057895;28;20043;-80
2022/07/26 04:38:27;;;;;;;15.02;7.15;;;30.20;61.80;;;;;;5058589;28;20040;-81
2022/07/26 04:40:54;;;;;;;12.43;6.72;;;30.50;61.00;;;;;;5058112;28;20024;-80
2022/07/26 04:43:21;;;;;;;24.88;6.60;;;31.00;60.30;;;;;;5057008;28;20164;-80
2022/07/26 04:45:47;;;;;;;18.23;7.53;;;31.10;69.90;;;;;;5055070;28;20017;-80
2022/07/26 04:48:15;;;;;;;12.15;6.85;;;;;;;;;;5054670;28;20116;-75
2022/07/26 04:50:42;;;;;;;14.60;7.88;;;30.90;77.50;;;;;;5057498;28;20067;-81
2022/07/26 04:53:10;;;;;;;13.55;6.78;;;31.40;68.30;;;;;;5059582;28;20029;-80
2022/07/26 04:55:40;;;;;;;14.55;8.13;;;31.30;68.80;;;;;;5056843;28;20029;-81
2022/07/26 04:58:06;;;;;;;14.18;7.28;;;;;;;;;;5054994;28;20067;-78
2022/07/26 05:00:32;;;;;;;14.73;6.97;;;31.40;65.10;;;;;;5056810;28;20072;-81
2022/07/26 05:03:00;;;;;;;11.55;6.10;;;;;;;;;;5054254;28;20410;-82
2022/07/26 05:05:28;;;;;;;14.57;6.72;;;31.80;58.40;;;;;;5055853;28;20071;-80
2022/07/26 05:07:56;;;;;;;15.73;7.53;;;;;;;;;;5051949;28;20032;-80
2022/07/26 05:10:27;;;;;;;18.33;7.70;;;28.20;59.70;;;;;;5052189;28;20035;-82
2022/07/26 05:12:53;;;;;;;;;;;;;;;;;;5052340;28;20083;-80
2022/07/26 05:15:19;;;;;;;17.45;7.20;;;27.60;62.70;;;;;;5050713;28;19913;-83
2022/07/26 05:17:45;;;;;;;16.02;8.10;;;;;;;;;;5052762;28;20017;-74
2022/07/26 05:20:14;;;;;;;13.80;6.70;;;27.20;64.30;;;;;;5055165;28;20017;-81
2022/07/26 05:22:40;;;;;;;19.60;6.35;;;27.20;65.90;;;;;;5052360;28;20048;-80
2022/07/26 05:25:07;;;;;;;14.70;6.57;;;27.10;66.20;;;;;;5052439;28;20020;-80
2022/07/26 05:27:33;;;;;;;14.50;6.78;;;27.10;66.30;;;;;;5051991;28;20021;-81
2022/07/26 05:29:59;;;;;;;19.38;7.32;;;26.50;66.10;;;;;;5052221;28;20017;-77
2022/07/26 05:32:26;;;;;;;12.95;6.35;;;;;;;;;;5039522;28;20495;-80
2022/07/26 05:34:52;;;;;;;11.48;5.47;;;26.30;84.80;;;;;;5052131;28;20045;-80
2022/07/26 05:37:19;;;;;;;12.98;6.15;;;26.10;86.40;;;;;;5051991;28;20072;-81
2022/07/26 05:39:44;;;;;;;13.80;6.20;;;26.40;86.20;;;;;;5052261;28;20017;-81
2022/07/26 05:42:10;;;;;;;10.77;5.50;;;26.10;81.70;;;;;;5052966;28;20112;-80
2022/07/26 05:44:36;;;;;;;13.38;6.07;;;26.40;77.60;;;;;;5052520;28;20374;-80
2022/07/26 05:47:02;;;;;;;10.43;6.35;;;26.70;77.90;;;;;;5034638;28;20067;-80
2022/07/26 05:49:28;;;;;;;14.00;6.65;;;26.70;77.70;;;;;;5052221;28;20497;-80
2022/07/26 05:51:54;;;;;;;14.57;7.00;;;26.80;79.60;;;;;;5051794;28;20028;-81
2022/07/26 05:54:20;;;;;;;10.45;6.25;;;27.00;66.30;;;;;;5052184;28;20029;-80
2022/07/26 05:56:46;;;;;;;13.73;6.63;;;27.10;66.30;;;;;;5051987;28;20068;-80
2022/07/26 05:59:13;;;;;;;17.77;7.00;;;27.10;66.40;;;;;;5051828;28;20021;-80
2022/07/26 06:01:38;;;;;;;17.38;6.80;;;27.60;73.80;;;;;;5051593;28;20029;-81
2022/07/26 06:04:04;;;;;;;19.23;7.75;;;27.50;78.20;;;;;;5051598;28;20040;-80
2022/07/26 06:06:30;;;;;;;13.45;6.95;;;27.90;65.10;;;;;;5052019;28;20036;-80
2022/07/26 06:08:56;;;;;;;13.73;7.20;;;27.90;65.60;;;;;;5051997;28;20109;-78
2022/07/26 06:11:22;;;;;;;18.50;7.70;;;27.90;64.30;;;;;;5056258;28;20025;-79
2022/07/26 06:13:47;;;;;;;13.68;6.50;;;28.20;64.40;;;;;;5055978;28;20036;-79
2022/07/26 06:16:13;;;;;;;26.77;9.90;;;28.30;66.00;;;;;;5055553;28;20037;-80
2022/07/26 06:18:39;;;;;;;31.25;10.93;;;28.20;81.60;;;;;;5055263;28;20017;-81
2022/07/26 06:21:06;;;;;;;20.02;9.82;;;;;;;;;;5055474;28;20060;-76
2022/07/26 06:23:32;;;;;;;19.83;9.00;;;27.80;69.20;;;;;;5055481;28;20379;-81
2022/07/26 06:25:58;;;;;;;22.80;9.40;;;27.50;70.70;;;;;;5055486;28;20033;-79
2022/07/26 06:28:24;;;;;;;25.80;8.77;;;27.40;72.00;;;;;;5055659;28;20021;-74
2022/07/26 06:30:50;;;;;;;20.63;9.25;;;27.40;72.00;;;;;;5055534;28;20475;-81
2022/07/26 06:33:15;;;;;;;25.05;11.23;;;27.90;72.70;;;;;;5055500;28;20029;-82
2022/07/26 06:35:41;;;;;;;30.25;13.00;;;28.20;70.70;;;;;;5055497;28;20068;-80
2022/07/26 06:38:08;;;;;;;43.50;11.38;;;;;;;;;;5055507;28;20017;-80
2022/07/26 06:40:34;;;;;;;24.33;10.52;;;28.40;87.80;;;;;;5054982;28;20103;-80
2022/07/26 06:43:01;;;;;;;22.75;8.93;;;;;;;;;;5054829;28;20467;-80
2022/07/26 06:45:27;;;;;;;29.15;8.13;;;;;;;;;;5054210;28;20033;-81
2022/07/26 06:47:53;;;;;;;22.40;8.85;;;29.40;88.40;;;;;;5055092;28;20036;-82
2022/07/26 06:50:19;;;;;;;19.10;9.10;;;29.80;77.30;;;;;;5055177;28;20025;-81
2022/07/26 06:52:45;;;;;;;19.48;7.25;;;30.00;84.00;;;;;;5055413;28;20116;-81
2022/07/26 06:55:11;;;;;;;22.08;7.88;;;30.20;85.10;;;;;;5054250;28;20124;-81
2022/07/26 06:57:39;;;;;;;17.50;7.00;;;30.20;65.40;;;;;;5054418;28;20059;-82
2022/07/26 07:00:07;;;;;;;17.95;7.82;;;30.10;65.60;;;;;;5054551;28;20017;-75
2022/07/26 07:02:33;;;;;;;14.25;7.13;;;30.20;65.30;;;;;;5051766;28;20041;-75
2022/07/26 07:04:59;;;;;;;15.43;6.95;;;30.30;64.30;;;;;;5053656;28;20029;-83
2022/07/26 07:07:25;;;;;;;15.90;6.78;;;30.60;63.40;;;;;;5053395;28;20029;-78
2022/07/26 07:09:51;;;;;;;19.55;7.57;;;30.50;62.80;;;;;;5053895;28;20127;-81
2022/07/26 07:12:17;;;;;;;19.73;6.80;;;30.50;61.50;;;;;;5053796;28;20024;-81
2022/07/26 07:14:43;;;;;;;13.77;7.13;;;30.80;68.80;;;;;;5054133;28;20397;-81
2022/07/26 07:17:09;;;;;;;20.75;7.95;;;30.90;65.90;;;;;;5053657;28;20091;-82
2022/07/26 07:19:35;;;;;;;16.83;6.97;;;;;;;;;;5054017;28;20040;-79
2022/07/26 07:22:03;;;;;;;12.95;6.55;;;;;;;;;;5052879;28;20151;-81
2022/07/26 07:24:29;;;;;;;13.93;6.43;;;31.20;60.20;;;;;;5054457;28;20059;-81
2022/07/26 07:26:54;;;;;;;16.92;7.53;;;31.40;67.20;;;;;;5053958;28;20017;-81
2022/07/26 07:29:20;;;;;;;21.63;7.68;;;31.50;72.30;;;;;;5054402;28;20399;-80
2022/07/26 07:31:47;;;;;;;15.75;7.43;;;31.80;62.50;;;;;;5054259;28;20078;-81
2022/07/26 07:34:14;;;;;;;20.05;8.15;;;31.40;59.20;;;;;;5054172;28;20067;-81
2022/07/26 07:36:40;;;;;;;14.10;7.70;;;31.80;59.00;;;;;;5054024;28;20029;-81
2022/07/26 07:39:06;;;;;;;20.65;8.00;;;31.90;58.50;;;;;;5054324;28;20025;-79
2022/07/26 07:41:33;;;;;;;15.45;7.00;;;32.10;57.90;;;;;;5054522;28;20071;-82
2022/07/26 07:43:59;;;;;;;15.38;7.80;;;32.00;56.60;;;;;;5054177;28;20021;-81
2022/07/26 07:46:26;;;;;;;19.38;7.15;;;;;;;;;;5054385;28;20041;-80
2022/07/26 07:48:52;;;;;;;13.10;8.57;;;32.30;72.90;;;;;;5054222;28;20025;-80
2022/07/26 07:51:19;;;;;;;20.98;10.48;;;32.30;64.80;;;;;;5054011;28;20017;-80
2022/07/26 07:53:45;;;;;;;15.90;8.68;;;;;;;;;;5053687;28;20375;-81
2022/07/26 07:56:11;;;;;;;12.45;6.55;;;32.30;53.70;;;;;;5053404;28;20047;-80
2022/07/26 07:58:36;;;;;;;15.50;6.85;;;32.40;53.00;;;;;;5053385;28;20581;-82
2022/07/26 08:01:02;;;;;;;11.02;5.93;;;32.70;51.90;;;;;;5052359;28;20033;-77
2022/07/26 08:03:28;;;;;;;7.65;4.55;;;32.90;52.20;;;;;;5040453;28;20033;-81
2022/07/26 08:05:54;;;;;;;8.07;4.43;;;33.00;51.80;;;;;;5053349;28;20364;-78
2022/07/26 08:08:20;;;;;;;10.73;5.05;;;;;;;;;;5039105;28;20410;-72
2022/07/26 08:10:49;;;;;;;9.15;5.18;;;33.60;66.60;;;;;;5041135;28;20025;-81
2022/07/26 08:13:15;;;;;;;15.70;4.80;;;;;;;;;;5052929;28;20395;-79
2022/07/26 08:15:41;;;;;;;12.40;5.10;;;33.80;53.00;;;;;;5052905;28;20033;-81
2022/07/26 08:18:07;;;;;;;9.35;5.05;;;33.70;53.00;;;;;;5052728;28;20024;-83
2022/07/26 08:20:32;;;;;;;10.82;5.22;;;33.70;52.10;;;;;;5053014;28;20475;-77
2022/07/26 08:22:59;;;;;;;11.00;4.93;;;32.80;83.30;;;;;;5052413;28;20029;-83
2022/07/26 08:25:25;;;;;;;9.93;5.38;;;32.40;52.70;;;;;;5035156;28;20029;-80
2022/07/26 08:27:51;;;;;;;8.90;5.15;;;33.10;53.20;;;;;;5051527;28;20100;-84
2022/07/26 08:30:16;;;;;;;10.52;4.75;;;33.00;53.10;;;;;;5017150;28;20043;-84
2022/07/26 08:32:42;;;;;;;11.93;5.38;;;33.30;53.00;;;;;;5052403;28;20029;-82
2022/07/26 08:35:08;;;;;;;10.38;4.45;;;33.40;51.40;;;;;;5051609;28;20082;-79
2022/07/26 08:37:34;;;;;;;7.88;4.00;;;33.80;52.00;;;;;;5050881;28;20507;-81
2022/07/26 08:40:00;;;;;;;10.60;4.82;;;34.20;53.40;;;;;;5051199;28;20064;-81
2022/07/26 08:42:26;;;;;;;9.88;4.68;;;34.50;51.50;;;;;;5048785;28;20124;-80
2022/07/26 08:44:52;;;;;;;9.85;4.78;;;34.60;50.40;;;;;;5051754;28;20028;-78
2022/07/26 08:47:25;;;;;;;8.50;4.75;;;34.90;67.30;;;;;;5050920;28;20029;-75
2022/07/26 08:49:50;;;;;;;7.40;4.72;;;35.10;50.10;;;;;;5052639;28;20409;-79
2022/07/26 08:52:16;;;;;;;8.40;5.25;;;35.30;50.10;;;;;;5052306;28;20099;-72
2022/07/26 08:54:43;;;;;;;9.48;5.05;;;35.30;49.10;;;;;;5052246;28;20037;-62
2022/07/26 08:57:09;;;;;;;8.95;5.18;;;35.20;46.60;;;;;;5052283;28;20037;-72
2022/07/26 08:59:35;;;;;;;14.95;5.28;;;34.80;46.40;;;;;;5052525;28;20025;-75
2022/07/26 09:02:05;;;;;;;12.05;5.22;;;34.80;46.30;;;;;;5050357;28;20044;-69
2022/07/26 09:04:35;;;;;;;9.02;4.75;;;34.80;47.50;;;;;;5047616;28;20104;-75
2022/07/26 09:07:05;;;;;;;9.40;5.15;;;34.60;46.30;;;;;;5052320;28;20021;-63
2022/07/26 09:09:33;;;;;;;9.27;5.07;;;34.70;46.70;;;;;;5052309;28;20028;-75
2022/07/26 09:12:16;;;;;;;8.02;4.57;;;34.70;47.60;;;;;;5051511;28;20013;-78
2022/07/26 09:14:45;;;;;;;11.40;4.97;;;35.00;48.90;;;;;;5052672;28;20087;-81
2022/07/26 09:17:12;;;;;;;9.32;4.45;;;35.00;47.60;;;;;;5052381;28;20029;-78
2022/07/26 09:19:38;;;;;;;7.25;4.47;;;34.70;47.10;;;;;;5051695;28;20033;-80
2022/07/26 09:22:10;;;;;;;12.00;5.07;;;34.70;47.20;;;;;;5051853;28;20521;-77
2022/07/26 09:24:42;;;;;;;7.43;4.60;;;34.90;47.50;;;;;;5052831;28;20033;-83
2022/07/26 09:27:10;;;;;;;10.88;5.50;;;35.00;47.80;;;;;;5049621;28;20032;-82
2022/07/26 09:29:42;;;;;;;11.65;5.82;;;35.20;47.40;;;;;;5049071;28;20395;-78
2022/07/26 09:32:12;;;;;;;11.38;5.25;;;35.30;46.80;;;;;;5047238;28;20044;-82
2022/07/26 09:34:39;;;;;;;8.93;5.78;;;35.30;45.80;;;;;;5039495;28;20055;-76
2022/07/26 09:37:04;;;;;;;10.25;4.88;;;35.40;47.10;;;;;;5045537;28;20032;-76
2022/07/26 09:39:30;;;;;;;17.05;10.68;;;35.30;46.10;;;;;;5049594;28;20029;-81
2022/07/26 09:41:56;;;;;;;9.77;5.07;;;35.40;46.50;;;;;;5045481;28;20112;-85
2022/07/26 09:44:24;;;;;;;12.75;5.43;;;35.30;45.20;;;;;;5051075;28;20036;-79
2022/07/26 09:46:56;;;;;;;13.13;5.28;;;35.50;46.60;;;;;;5050426;28;20417;-76
2022/07/26 09:49:23;;;;;;;8.68;4.95;;;35.20;45.60;;;;;;5041415;28;20022;-84
2022/07/26 09:51:51;;;;;;;8.70;4.85;;;34.90;44.30;;;;;;5033375;28;20085;-74
2022/07/26 09:54:18;;;;;;;9.55;4.82;;;34.40;45.00;;;;;;5046964;28;20021;-80
2022/07/26 09:56:49;;;;;;;7.57;4.25;;;34.80;46.80;;;;;;5042135;28;20040;-71
2022/07/26 09:59:17;;;;;;;;;;;35.30;47.80;;;;;;5052496;28;20021;-83
2022/07/26 10:01:44;;;;;;;7.07;4.45;;;35.50;45.60;;;;;;5049191;28;20011;-71
2022/07/26 10:04:11;;;;;;;5.97;4.22;;;35.20;44.80;;;;;;5041613;28;20025;-75
2022/07/26 10:06:36;;;;;;;6.20;3.65;;;35.50;44.70;;;;;;5048270;28;20475;-78
2022/07/26 10:09:03;;;;;;;7.35;3.97;;;35.90;44.70;;;;;;5040612;28;20032;-79
2022/07/26 10:11:39;;;;;;;11.65;5.93;;;35.80;44.80;;;;;;5046054;28;20021;-84
2022/07/26 10:14:41;;;;;;;8.80;4.50;;;36.10;45.80;;;;;;5050738;28;20036;-69
2022/07/26 10:17:21;;;;;;;;;;;36.10;45.60;;;;;;4976541;28;20042;-77
2022/07/26 10:19:47;;;;;;;9.93;4.83;;;36.30;44.70;;;;;;4982930;28;19916;-84
2022/07/26 10:22:42;;;;;;;7.82;4.20;;;36.20;45.70;;;;;;4975932;28;20388;-82
2022/07/26 10:25:17;;;;;;;7.65;4.80;;;36.00;45.40;;;;;;4980519;28;20047;-77
2022/07/26 10:27:53;;;;;;;8.98;4.97;;;35.90;45.80;;;;;;4987202;28;20084;-69
2022/07/26 10:30:23;;;;;;;7.53;5.28;;;35.70;45.60;;;;;;4976816;28;20034;-75
2022/07/26 10:32:59;;;;;;;8.52;4.65;;;35.70;45.50;;;;;;4980751;28;20058;-80
2022/07/26 10:35:40;;;;;;;5.80;4.35;;;35.30;46.00;;;;;;4974824;28;20034;-72
2022/07/26 10:38:07;;;;;;;;;;;35.00;46.20;;;;;;4989300;28;20046;-73
2022/07/26 10:40:34;;;;;;;6.75;4.30;;;34.80;46.10;;;;;;4976453;28;20534;-73
2022/07/26 10:43:14;;;;;;;10.60;5.50;;;34.90;46.20;;;;;;4966734;28;20030;-74
2022/07/26 10:45:41;;;;;;;10.23;4.60;;;34.90;46.10;;;;;;4974360;28;20216;-72
2022/07/26 10:48:19;;;;;;;6.95;3.95;;;35.00;46.80;;;;;;4970006;28;20288;-73
2022/07/26 10:50:47;;;;;;;6.47;4.40;;;35.00;46.20;;;;;;4983973;28;20175;-80
2022/07/26 10:53:23;;;;;;;8.05;4.30;;;35.00;46.00;;;;;;5032985;28;20547;-75
2022/07/26 10:55:54;;;;;;;9.95;4.30;;;35.00;45.70;;;;;;5030319;28;20042;-72
2022/07/26 10:58:21;;;;;;;7.05;4.55;;;35.00;46.00;;;;;;5034976;28;20112;-63
2022/07/26 11:01:00;;;;;;;8.65;4.18;;;35.10;46.40;;;;;;5018420;28;20025;-79
2022/07/26 11:03:40;;;;;;;9.50;4.47;;;35.10;45.60;;;;;;5015397;28;20103;-75
2022/07/26 11:06:10;;;;;;;10.53;4.40;;;35.20;45.80;;;;;;5034181;28;20376;-82
2022/07/26 11:08:36;;;;;;;11.75;4.45;;;35.00;45.20;;;;;;5037154;28;20048;-80
2022/07/26 11:11:02;;;;;;;7.40;4.60;;;35.10;45.60;;;;;;5054554;28;20459;-82
2022/07/26 11:13:32;;;;;;;5.28;3.72;;;35.10;45.80;;;;;;5054519;28;20071;-80
2022/07/26 11:16:00;;;;;;;7.60;4.38;;;35.10;44.40;;;;;;5054564;28;20033;-79
2022/07/26 11:18:31;;;;;;;6.72;3.50;;;35.10;44.70;;;;;;5054107;28;20071;-78
2022/07/26 11:21:11;;;;;;;7.80;4.47;;;35.10;43.60;;;;;;5054313;28;20017;-79
2022/07/26 11:23:39;;;;;;;5.60;3.92;;;35.20;45.70;;;;;;5054643;28;20021;-81
2022/07/26 11:26:19;;;;;;;4.60;3.65;;;35.10;43.80;;;;;;5054536;28;20048;-79
2022/07/26 11:28:46;;;;;;;4.68;3.60;;;35.00;43.90;;;;;;5054751;28;20091;-79
2022/07/26 11:31:12;;;;;;;8.32;3.92;;;34.90;44.10;;;;;;5054581;28;20363;-81
2022/07/26 11:33:41;;;;;;;11.68;4.50;;;34.90;43.90;;;;;;5053792;28;20065;-80
2022/07/26 11:36:07;;;;;;;7.68;4.30;;;34.90;44.80;;;;;;5054679;28;20079;-81
2022/07/26 11:38:51;;;;;;;7.28;4.47;;;35.10;45.70;;;;;;5054249;28;20036;-81
2022/07/26 11:41:22;;;;;;;7.78;4.32;;;35.00;44.60;;;;;;5054130;28;20055;-81
2022/07/26 11:43:48;;;;;;;;;;;35.00;44.50;;;;;;5054311;28;20013;-78
2022/07/26 11:46:15;;;;;;;5.25;3.88;;;35.00;44.50;;;;;;5053097;28;20400;-79
2022/07/26 11:48:45;;;;;;;10.05;4.82;;;35.20;45.50;;;;;;5053520;28;20021;-81
2022/07/26 11:51:13;;;;;;;10.65;4.53;;;35.10;45.10;;;;;;5039792;28;20030;-74
2022/07/26 11:53:39;;;;;;;6.93;3.92;;;35.20;45.00;;;;;;5032845;28;20036;-76
2022/07/26 11:56:11;;;;;;;6.13;4.20;;;35.20;44.80;;;;;;5033796;28;20645;-81
2022/07/26 11:58:41;;;;;;;11.27;4.43;;;35.10;45.10;;;;;;5036308;28;20017;-82
2022/07/26 12:01:08;;;;;;;5.57;3.90;;;35.00;44.30;;;;;;5042372;28;20483;-79
2022/07/26 12:03:36;;;;;;;6.50;3.90;;;35.00;44.30;;;;;;5053691;28;20061;-78
2022/07/26 12:06:07;;;;;;;5.15;3.38;;;35.00;44.80;;;;;;5053833;28;20021;-80
2022/07/26 12:08:47;;;;;;;3.22;2.80;;;35.20;42.60;;;;;;5052927;28;20551;-80
2022/07/26 12:11:15;;;;;;;5.35;3.90;;;35.20;40.30;;;;;;5038052;28;20021;-80
2022/07/26 12:13:56;;;;;;;6.90;3.17;;;35.40;41.80;;;;;;5050975;28;20025;-78
2022/07/26 12:16:35;;;;;;;9.57;3.50;;;35.30;42.00;;;;;;5051504;28;20072;-67
2022/07/26 12:19:02;;;;;;;4.35;3.20;;;35.10;42.40;;;;;;5046115;28;20029;-70
2022/07/26 12:21:44;;;;;;;6.80;3.95;;;35.10;40.70;;;;;;5034396;28;20806;-69
2022/07/26 12:24:12;;;;;;;11.65;2.83;;;35.20;41.20;;;;;;5035210;28;20025;-76
2022/07/26 12:26:39;;;;;;;4.30;3.40;;;35.20;40.60;;;;;;5034982;28;20417;-80
2022/07/26 12:29:24;;;;;;;8.10;3.17;;;35.20;40.20;;;;;;5038401;28;20029;-69
2022/07/26 12:32:04;;;;;;;6.65;3.22;;;35.20;40.30;;;;;;5051759;28;20017;-78
2022/07/26 12:34:30;;;;;;;5.15;3.35;;;35.40;39.70;;;;;;5052707;28;20036;-80
2022/07/26 12:37:06;;;;;;;5.72;3.08;;;35.50;41.20;;;;;;5053515;28;20033;-76
2022/07/26 12:39:32;;;;;;;8.38;3.60;;;35.40;40.90;;;;;;5052622;28;20025;-78
2022/07/26 12:41:57;;;;;;;5.38;3.35;;;35.60;40.70;;;;;;5052770;28;20027;-78
2022/07/26 12:44:23;;;;;;;5.88;3.55;;;35.40;40.70;;;;;;5052919;28;20033;-79
2022/07/26 12:46:49;;;;;;;7.53;3.80;;;35.50;40.30;;;;;;5051193;28;20033;-77
2022/07/26 12:49:15;;;;;;;10.57;3.97;;;35.30;40.80;;;;;;5047434;28;20044;-79
2022/07/26 12:51:41;;;;;;;12.48;3.95;;;35.20;39.90;;;;;;5045998;28;20039;-76
2022/07/26 12:54:07;;;;;;;11.50;3.72;;;35.40;40.80;;;;;;5034905;28;20021;-74